sensor_id;sensor_type;location;lat;lon;timestamp;noise_LAeq;noise_LA_min;noise_LA_max;noise_LA01;noise_LA95
67900;Laerm;54700;51.796;10.956;2023-02-28T00:01:20;45.24;27.52;62.74;;
67900;Laerm;54700;51.796;10.956;2023-02-28T00:03:51;52.06;27.50;67.99;;
67900;Laerm;54700;51.796;10.956;2023-02-28T00:06:18;29.29;27.42;37.43;;
67900;Laerm;54700;51.796;10.956;2023-02-28T00:08:46;29.15;27.61;38.23;;
67900;Laerm;54700;51.796;10.956;2023-02-28T00:11:14;29.41;27.57;37.93;;
67900;Laerm;54700;51.796;10.956;2023-02-28T00:13:43;46.78;27.33;67.83;;
67900;Laerm;54700;51.796;10.956;2023-02-28T00:16:14;54.30;27.60;68.76;;
67900;Laerm;54700;51.796;10.956;2023-02-28T00:18:42;29.32;27.33;41.15;;
67900;Laerm;54700;51.796;10.956;2023-02-28T00:21:10;28.94;27.36;41.28;;
67900;Laerm;54700;51.796;10.956;2023-02-28T00:23:37;29.01;27.28;40.21;;
67900;Laerm;54700;51.796;10.956;2023-02-28T00:26:04;48.78;27.51;66.13;;
67900;Laerm;54700;51.796;10.956;2023-02-28T00:28:31;29.12;27.46;39.76;;
67900;Laerm;54700;51.796;10.956;2023-02-28T00:30:59;29.33;27.18;39.60;;
67900;Laerm;54700;51.796;10.956;2023-02-28T00:33:27;50.71;27.32;68.77;;
67900;Laerm;54700;51.796;10.956;2023-02-28T00:36:02;28.89;27.21;40.60;;
67900;Laerm;54700;51.796;10.956;2023-02-28T00:38:31;28.98;27.22;40.10;;
67900;Laerm;54700;51.796;10.956;2023-02-28T00:40:58;28.88;27.34;38.43;;
67900;Laerm;54700;51.796;10.956;2023-02-28T00:43:30;28.74;27.16;39.59;;
67900;Laerm;54700;51.796;10.956;2023-02-28T00:45:57;29.79;27.55;41.68;;
67900;Laerm;54700;51.796;10.956;2023-02-28T00:48:24;53.55;27.46;66.55;;
67900;Laerm;54700;51.796;10.956;2023-02-28T00:50:51;29.06;27.17;38.55;;
67900;Laerm;54700;51.796;10.956;2023-02-28T00:53:18;50.63;27.45;66.04;;
67900;Laerm;54700;51.796;10.956;2023-02-28T00:55:46;38.97;27.47;54.76;;
67900;Laerm;54700;51.796;10.956;2023-02-28T00:58:13;30.05;27.60;40.36;;
67900;Laerm;54700;51.796;10.956;2023-02-28T01:00:40;29.67;27.61;39.10;;
67900;Laerm;54700;51.796;10.956;2023-02-28T01:03:07;29.68;27.59;41.03;;
67900;Laerm;54700;51.796;10.956;2023-02-28T01:05:35;49.64;27.40;65.92;;
67900;Laerm;54700;51.796;10.956;2023-02-28T01:08:02;47.48;27.62;63.79;;
67900;Laerm;54700;51.796;10.956;2023-02-28T01:10:29;29.90;27.42;40.11;;
67900;Laerm;54700;51.796;10.956;2023-02-28T01:13:00;29.41;27.65;39.55;;
67900;Laerm;54700;51.796;10.956;2023-02-28T01:15:27;30.75;27.49;40.68;;
67900;Laerm;54700;51.796;10.956;2023-02-28T01:17:54;30.58;27.85;39.85;;
67900;Laerm;54700;51.796;10.956;2023-02-28T01:20:27;29.39;27.35;40.25;;
67900;Laerm;54700;51.796;10.956;2023-02-28T01:22:54;51.32;27.93;67.17;;
67900;Laerm;54700;51.796;10.956;2023-02-28T01:25:21;30.25;28.04;40.30;;
67900;Laerm;54700;51.796;10.956;2023-02-28T01:27:48;29.39;27.37;41.51;;
67900;Laerm;54700;51.796;10.956;2023-02-28T01:30:16;29.25;27.09;39.58;;
67900;Laerm;54700;51.796;10.956;2023-02-28T01:32:43;29.50;27.25;40.57;;
67900;Laerm;54700;51.796;10.956;2023-02-28T01:35:10;28.85;27.35;38.90;;
67900;Laerm;54700;51.796;10.956;2023-02-28T01:37:38;28.95;27.12;39.93;;
67900;Laerm;54700;51.796;10.956;2023-02-28T01:40:10;30.70;27.31;44.09;;
67900;Laerm;54700;51.796;10.956;2023-02-28T01:42:37;29.92;27.53;38.70;;
67900;Laerm;54700;51.796;10.956;2023-02-28T01:45:18;29.36;27.56;39.37;;
67900;Laerm;54700;51.796;10.956;2023-02-28T01:47:50;29.07;27.17;38.66;;
67900;Laerm;54700;51.796;10.956;2023-02-28T01:50:20;29.22;26.95;38.67;;
67900;Laerm;54700;51.796;10.956;2023-02-28T01:52:50;28.97;27.27;39.72;;
67900;Laerm;54700;51.796;10.956;2023-02-28T01:55:20;30.33;27.80;39.74;;
67900;Laerm;54700;51.796;10.956;2023-02-28T01:57:56;31.76;27.95;39.45;;
67900;Laerm;54700;51.796;10.956;2023-02-28T02:00:27;30.14;27.28;39.49;;
67900;Laerm;54700;51.796;10.956;2023-02-28T02:02:57;29.40;27.31;39.45;;
67900;Laerm;54700;51.796;10.956;2023-02-28T02:05:27;32.15;27.83;39.83;;
67900;Laerm;54700;51.796;10.956;2023-02-28T02:08:00;31.09;27.78;40.86;;
67900;Laerm;54700;51.796;10.956;2023-02-28T02:10:31;30.55;27.78;40.55;;
67900;Laerm;54700;51.796;10.956;2023-02-28T02:13:16;30.62;27.48;41.35;;
67900;Laerm;54700;51.796;10.956;2023-02-28T02:15:54;54.87;27.55;71.61;;
67900;Laerm;54700;51.796;10.956;2023-02-28T02:18:31;31.00;27.70;40.37;;
67900;Laerm;54700;51.796;10.956;2023-02-28T02:21:35;51.58;27.76;68.07;;
67900;Laerm;54700;51.796;10.956;2023-02-28T02:24:36;49.01;27.86;65.44;;
67900;Laerm;54700;51.796;10.956;2023-02-28T02:27:17;53.54;28.88;71.08;;
67900;Laerm;54700;51.796;10.956;2023-02-28T02:30:02;30.93;27.98;40.69;;
67900;Laerm;54700;51.796;10.956;2023-02-28T02:33:07;30.03;28.06;39.05;;
67900;Laerm;54700;51.796;10.956;2023-02-28T02:35:41;32.10;28.76;51.95;;
67900;Laerm;54700;51.796;10.956;2023-02-28T02:38:18;45.96;27.94;60.30;;
67900;Laerm;54700;51.796;10.956;2023-02-28T02:40:55;32.72;27.84;44.61;;
67900;Laerm;54700;51.796;10.956;2023-02-28T02:43:29;32.40;28.76;40.46;;
67900;Laerm;54700;51.796;10.956;2023-02-28T02:46:02;31.93;27.81;41.04;;
67900;Laerm;54700;51.796;10.956;2023-02-28T02:48:34;31.00;28.18;41.07;;
67900;Laerm;54700;51.796;10.956;2023-02-28T02:51:07;31.09;27.86;44.41;;
67900;Laerm;54700;51.796;10.956;2023-02-28T02:53:41;50.31;28.46;66.13;;
67900;Laerm;54700;51.796;10.956;2023-02-28T02:56:08;31.90;28.18;43.81;;
67900;Laerm;54700;51.796;10.956;2023-02-28T02:58:40;48.56;27.99;64.64;;
67900;Laerm;54700;51.796;10.956;2023-02-28T03:01:12;54.41;28.57;70.24;;
67900;Laerm;54700;51.796;10.956;2023-02-28T03:03:41;55.34;28.70;67.48;;
67900;Laerm;54700;51.796;10.956;2023-02-28T03:06:10;35.09;28.96;44.35;;
67900;Laerm;54700;51.796;10.956;2023-02-28T03:08:38;55.17;30.61;72.45;;
67900;Laerm;54700;51.796;10.956;2023-02-28T03:11:06;52.26;30.43;68.06;;
67900;Laerm;54700;51.796;10.956;2023-02-28T03:13:55;35.90;29.25;44.01;;
67900;Laerm;54700;51.796;10.956;2023-02-28T03:16:34;35.18;30.06;43.44;;
67900;Laerm;54700;51.796;10.956;2023-02-28T03:22:03;54.22;29.63;73.40;;
67900;Laerm;54700;51.796;10.956;2023-02-28T03:24:34;55.85;30.77;68.26;;
67900;Laerm;54700;51.796;10.956;2023-02-28T03:27:08;57.48;29.80;71.24;;
67900;Laerm;54700;51.796;10.956;2023-02-28T03:29:40;51.91;30.50;68.51;;
67900;Laerm;54700;51.796;10.956;2023-02-28T03:32:14;54.48;33.44;68.41;;
67900;Laerm;54700;51.796;10.956;2023-02-28T03:34:51;58.67;31.13;71.65;;
67900;Laerm;54700;51.796;10.956;2023-02-28T03:37:25;53.77;29.39;67.97;;
67900;Laerm;54700;51.796;10.956;2023-02-28T03:39:59;55.99;29.45;72.29;;
67900;Laerm;54700;51.796;10.956;2023-02-28T03:42:29;52.49;29.56;69.61;;
67900;Laerm;54700;51.796;10.956;2023-02-28T03:45:00;54.58;30.21;66.77;;
67900;Laerm;54700;51.796;10.956;2023-02-28T03:47:31;55.37;30.73;68.97;;
67900;Laerm;54700;51.796;10.956;2023-02-28T03:50:02;54.14;29.56;71.23;;
67900;Laerm;54700;51.796;10.956;2023-02-28T03:52:33;54.42;29.84;69.07;;
67900;Laerm;54700;51.796;10.956;2023-02-28T03:55:05;35.41;30.35;45.69;;
67900;Laerm;54700;51.796;10.956;2023-02-28T03:57:38;54.05;30.81;67.85;;
67900;Laerm;54700;51.796;10.956;2023-02-28T04:00:08;50.05;30.77;67.62;;
67900;Laerm;54700;51.796;10.956;2023-02-28T04:02:39;55.85;31.40;70.88;;
67900;Laerm;54700;51.796;10.956;2023-02-28T04:05:08;53.36;31.45;71.01;;
67900;Laerm;54700;51.796;10.956;2023-02-28T04:07:36;52.60;31.22;66.20;;
67900;Laerm;54700;51.796;10.956;2023-02-28T04:10:04;51.30;30.93;66.94;;
67900;Laerm;54700;51.796;10.956;2023-02-28T04:12:31;53.14;33.77;67.14;;
67900;Laerm;54700;51.796;10.956;2023-02-28T04:14:58;55.63;31.94;69.22;;
67900;Laerm;54700;51.796;10.956;2023-02-28T04:17:24;55.37;31.34;71.63;;
67900;Laerm;54700;51.796;10.956;2023-02-28T04:19:51;53.00;32.14;69.45;;
67900;Laerm;54700;51.796;10.956;2023-02-28T04:22:19;57.16;33.18;68.83;;
67900;Laerm;54700;51.796;10.956;2023-02-28T04:24:48;56.78;32.40;69.49;;
67900;Laerm;54700;51.796;10.956;2023-02-28T04:27:16;61.45;34.56;73.25;;
67900;Laerm;54700;51.796;10.956;2023-02-28T04:29:43;58.04;33.33;68.58;;
67900;Laerm;54700;51.796;10.956;2023-02-28T04:32:10;54.38;32.84;67.20;;
67900;Laerm;54700;51.796;10.956;2023-02-28T04:34:41;60.74;34.51;72.20;;
67900;Laerm;54700;51.796;10.956;2023-02-28T04:37:10;58.63;35.24;72.80;;
67900;Laerm;54700;51.796;10.956;2023-02-28T04:39:37;55.23;33.67;68.66;;
67900;Laerm;54700;51.796;10.956;2023-02-28T04:42:06;57.29;33.60;70.11;;
67900;Laerm;54700;51.796;10.956;2023-02-28T04:44:33;53.07;32.90;72.18;;
67900;Laerm;54700;51.796;10.956;2023-02-28T04:47:00;61.50;35.91;73.07;;
67900;Laerm;54700;51.796;10.956;2023-02-28T04:49:27;59.59;34.61;69.87;;
67900;Laerm;54700;51.796;10.956;2023-02-28T04:51:53;60.14;34.23;70.66;;
67900;Laerm;54700;51.796;10.956;2023-02-28T04:54:21;62.70;36.91;75.29;;
67900;Laerm;54700;51.796;10.956;2023-02-28T04:56:48;58.79;37.23;70.87;;
67900;Laerm;54700;51.796;10.956;2023-02-28T04:59:16;56.11;32.19;69.42;;
67900;Laerm;54700;51.796;10.956;2023-02-28T05:01:46;59.98;33.30;75.93;;
67900;Laerm;54700;51.796;10.956;2023-02-28T05:04:14;58.79;34.25;70.38;;
67900;Laerm;54700;51.796;10.956;2023-02-28T05:06:40;59.27;34.32;71.02;;
67900;Laerm;54700;51.796;10.956;2023-02-28T05:09:07;60.23;34.89;70.81;;
67900;Laerm;54700;51.796;10.956;2023-02-28T05:11:44;58.75;35.55;70.57;;
67900;Laerm;54700;51.796;10.956;2023-02-28T05:14:14;60.09;35.23;70.67;;
67900;Laerm;54700;51.796;10.956;2023-02-28T05:16:44;61.73;35.90;71.08;;
67900;Laerm;54700;51.796;10.956;2023-02-28T05:19:11;58.88;34.17;70.40;;
67900;Laerm;54700;51.796;10.956;2023-02-28T05:21:48;59.51;34.50;75.15;;
67900;Laerm;54700;51.796;10.956;2023-02-28T05:24:19;59.99;38.80;69.70;;
67900;Laerm;54700;51.796;10.956;2023-02-28T05:26:49;59.09;35.53;71.89;;
67900;Laerm;54700;51.796;10.956;2023-02-28T05:29:17;60.61;42.91;74.39;;
67900;Laerm;54700;51.796;10.956;2023-02-28T05:31:45;62.20;35.34;70.41;;
67900;Laerm;54700;51.796;10.956;2023-02-28T05:34:12;61.24;39.30;71.52;;
67900;Laerm;54700;51.796;10.956;2023-02-28T05:36:41;61.97;36.96;73.56;;
67900;Laerm;54700;51.796;10.956;2023-02-28T05:39:08;61.04;34.77;73.28;;
67900;Laerm;54700;51.796;10.956;2023-02-28T05:41:41;60.75;38.74;70.15;;
67900;Laerm;54700;51.796;10.956;2023-02-28T05:44:09;62.25;36.21;75.58;;
67900;Laerm;54700;51.796;10.956;2023-02-28T05:46:35;61.63;40.65;72.65;;
67900;Laerm;54700;51.796;10.956;2023-02-28T05:49:05;62.25;41.53;70.43;;
67900;Laerm;54700;51.796;10.956;2023-02-28T05:51:35;64.66;37.11;75.32;;
67900;Laerm;54700;51.796;10.956;2023-02-28T05:54:08;65.29;45.93;75.65;;
67900;Laerm;54700;51.796;10.956;2023-02-28T05:56:36;64.15;49.68;76.48;;
67900;Laerm;54700;51.796;10.956;2023-02-28T05:59:13;64.67;45.26;74.42;;
67900;Laerm;54700;51.796;10.956;2023-02-28T06:01:46;61.82;43.84;71.50;;
67900;Laerm;54700;51.796;10.956;2023-02-28T06:04:17;62.95;38.83;75.50;;
67900;Laerm;54700;51.796;10.956;2023-02-28T06:06:44;63.86;43.44;74.26;;
67900;Laerm;54700;51.796;10.956;2023-02-28T06:09:12;63.32;38.75;71.48;;
67900;Laerm;54700;51.796;10.956;2023-02-28T06:11:42;64.20;35.21;74.14;;
67900;Laerm;54700;51.796;10.956;2023-02-28T06:14:14;62.06;35.03;70.40;;
67900;Laerm;54700;51.796;10.956;2023-02-28T06:16:42;65.07;47.66;76.71;;
67900;Laerm;54700;51.796;10.956;2023-02-28T06:19:10;62.44;44.03;71.69;;
67900;Laerm;54700;51.796;10.956;2023-02-28T06:21:40;64.27;43.12;72.10;;
67900;Laerm;54700;51.796;10.956;2023-02-28T06:24:07;64.41;42.87;76.30;;
67900;Laerm;54700;51.796;10.956;2023-02-28T06:26:34;63.57;44.55;70.24;;
67900;Laerm;54700;51.796;10.956;2023-02-28T06:29:04;64.13;38.36;74.43;;
67900;Laerm;54700;51.796;10.956;2023-02-28T06:31:35;64.24;43.15;72.13;;
67900;Laerm;54700;51.796;10.956;2023-02-28T06:34:04;66.04;42.26;75.89;;
67900;Laerm;54700;51.796;10.956;2023-02-28T06:36:33;64.57;42.42;74.57;;
67900;Laerm;54700;51.796;10.956;2023-02-28T06:39:05;63.82;44.38;80.43;;
67900;Laerm;54700;51.796;10.956;2023-02-28T06:41:37;62.62;41.57;70.96;;
67900;Laerm;54700;51.796;10.956;2023-02-28T06:44:08;64.07;51.23;72.87;;
67900;Laerm;54700;51.796;10.956;2023-02-28T06:46:39;64.19;48.30;80.67;;
67900;Laerm;54700;51.796;10.956;2023-02-28T06:49:07;63.86;46.27;71.63;;
67900;Laerm;54700;51.796;10.956;2023-02-28T06:51:42;64.54;52.40;74.07;;
67900;Laerm;54700;51.796;10.956;2023-02-28T06:57:03;65.33;50.29;73.28;;
67900;Laerm;54700;51.796;10.956;2023-02-28T06:59:33;63.76;42.06;72.18;;
67900;Laerm;54700;51.796;10.956;2023-02-28T07:02:04;62.93;37.52;72.74;;
67900;Laerm;54700;51.796;10.956;2023-02-28T07:04:48;64.12;38.30;77.55;;
67900;Laerm;54700;51.796;10.956;2023-02-28T07:07:21;61.93;36.06;71.78;;
67900;Laerm;54700;51.796;10.956;2023-02-28T07:10:25;63.13;35.83;76.84;;
67900;Laerm;54700;51.796;10.956;2023-02-28T07:12:58;61.07;35.81;76.16;;
67900;Laerm;54700;51.796;10.956;2023-02-28T07:15:43;61.32;37.80;72.08;;
67900;Laerm;54700;51.796;10.956;2023-02-28T07:18:13;63.32;39.66;70.10;;
67900;Laerm;54700;51.796;10.956;2023-02-28T07:20:47;63.05;43.49;72.52;;
67900;Laerm;54700;51.796;10.956;2023-02-28T07:23:23;64.41;38.51;74.34;;
67900;Laerm;54700;51.796;10.956;2023-02-28T07:26:03;62.48;34.81;77.36;;
67900;Laerm;54700;51.796;10.956;2023-02-28T07:28:31;63.72;43.13;71.45;;
67900;Laerm;54700;51.796;10.956;2023-02-28T07:31:03;63.68;43.18;73.94;;
67900;Laerm;54700;51.796;10.956;2023-02-28T07:33:30;63.42;38.23;76.09;;
67900;Laerm;54700;51.796;10.956;2023-02-28T07:36:07;62.00;40.79;71.22;;
67900;Laerm;54700;51.796;10.956;2023-02-28T07:38:35;62.39;36.88;76.03;;
67900;Laerm;54700;51.796;10.956;2023-02-28T07:41:08;63.23;41.59;80.34;;
67900;Laerm;54700;51.796;10.956;2023-02-28T07:43:49;62.71;32.78;73.37;;
67900;Laerm;54700;51.796;10.956;2023-02-28T07:46:20;62.20;38.01;73.39;;
67900;Laerm;54700;51.796;10.956;2023-02-28T07:48:48;63.16;39.52;72.48;;
67900;Laerm;54700;51.796;10.956;2023-02-28T07:51:15;62.89;36.65;71.25;;
67900;Laerm;54700;51.796;10.956;2023-02-28T07:53:46;62.27;38.46;70.49;;
67900;Laerm;54700;51.796;10.956;2023-02-28T07:56:14;60.84;34.17;71.95;;
67900;Laerm;54700;51.796;10.956;2023-02-28T07:58:41;60.72;35.84;72.50;;
67900;Laerm;54700;51.796;10.956;2023-02-28T08:01:16;63.86;34.30;76.29;;
67900;Laerm;54700;51.796;10.956;2023-02-28T08:03:46;61.79;40.57;70.38;;
67900;Laerm;54700;51.796;10.956;2023-02-28T08:06:24;63.84;46.83;75.71;;
67900;Laerm;54700;51.796;10.956;2023-02-28T08:09:00;61.74;33.94;71.12;;
67900;Laerm;54700;51.796;10.956;2023-02-28T08:11:28;61.50;36.26;70.87;;
67900;Laerm;54700;51.796;10.956;2023-02-28T08:13:55;61.62;41.84;70.55;;
67900;Laerm;54700;51.796;10.956;2023-02-28T08:16:26;63.24;37.45;71.47;;
67900;Laerm;54700;51.796;10.956;2023-02-28T08:19:04;63.81;36.24;73.26;;
67900;Laerm;54700;51.796;10.956;2023-02-28T08:21:32;63.14;43.97;77.42;;
67900;Laerm;54700;51.796;10.956;2023-02-28T08:24:01;63.24;42.26;72.60;;
67900;Laerm;54700;51.796;10.956;2023-02-28T08:26:31;62.11;34.04;71.11;;
67900;Laerm;54700;51.796;10.956;2023-02-28T08:29:10;60.74;33.33;72.26;;
67900;Laerm;54700;51.796;10.956;2023-02-28T08:31:39;62.42;36.74;74.47;;
67900;Laerm;54700;51.796;10.956;2023-02-28T08:34:11;64.61;36.18;76.77;;
67900;Laerm;54700;51.796;10.956;2023-02-28T08:36:46;63.52;47.71;76.78;;
67900;Laerm;54700;51.796;10.956;2023-02-28T08:39:25;60.49;39.97;72.05;;
67900;Laerm;54700;51.796;10.956;2023-02-28T08:41:58;64.29;46.51;75.02;;
67900;Laerm;54700;51.796;10.956;2023-02-28T08:50:43;62.06;38.76;71.15;;
67900;Laerm;54700;51.796;10.956;2023-02-28T08:51:33;64.36;40.71;77.53;;
67900;Laerm;54700;51.796;10.956;2023-02-28T08:54:10;61.98;44.13;72.40;;
67900;Laerm;54700;51.796;10.956;2023-02-28T09:03:59;63.00;38.92;74.83;;
67900;Laerm;54700;51.796;10.956;2023-02-28T09:06:49;62.67;45.33;73.81;;
67900;Laerm;54700;51.796;10.956;2023-02-28T09:09:22;62.43;35.30;70.89;;
67900;Laerm;54700;51.796;10.956;2023-02-28T09:11:55;61.20;32.46;70.77;;
67900;Laerm;54700;51.796;10.956;2023-02-28T09:14:24;61.72;32.92;71.05;;
67900;Laerm;54700;51.796;10.956;2023-02-28T09:16:51;62.66;38.04;71.65;;
67900;Laerm;54700;51.796;10.956;2023-02-28T09:19:21;63.35;40.35;71.77;;
67900;Laerm;54700;51.796;10.956;2023-02-28T09:21:49;63.32;42.76;72.03;;
67900;Laerm;54700;51.796;10.956;2023-02-28T09:24:21;62.88;38.50;71.39;;
67900;Laerm;54700;51.796;10.956;2023-02-28T09:26:51;62.42;37.76;70.67;;
67900;Laerm;54700;51.796;10.956;2023-02-28T09:29:18;63.86;42.31;73.33;;
67900;Laerm;54700;51.796;10.956;2023-02-28T09:31:48;64.24;47.66;74.86;;
67900;Laerm;54700;51.796;10.956;2023-02-28T09:34:16;62.20;38.01;72.58;;
67900;Laerm;54700;51.796;10.956;2023-02-28T09:36:45;63.13;42.39;71.70;;
67900;Laerm;54700;51.796;10.956;2023-02-28T09:39:16;63.33;40.74;75.02;;
67900;Laerm;54700;51.796;10.956;2023-02-28T09:41:47;60.08;36.94;68.92;;
67900;Laerm;54700;51.796;10.956;2023-02-28T09:44:19;64.76;47.67;78.82;;
67900;Laerm;54700;51.796;10.956;2023-02-28T09:46:53;67.52;39.94;82.14;;
67900;Laerm;54700;51.796;10.956;2023-02-28T09:49:24;62.64;40.46;70.80;;
67900;Laerm;54700;51.796;10.956;2023-02-28T09:51:58;64.44;40.09;77.49;;
67900;Laerm;54700;51.796;10.956;2023-02-28T09:54:28;63.71;43.93;72.92;;
67900;Laerm;54700;51.796;10.956;2023-02-28T09:57:00;62.02;35.36;70.26;;
67900;Laerm;54700;51.796;10.956;2023-02-28T09:59:48;63.69;40.59;75.40;;
67900;Laerm;54700;51.796;10.956;2023-02-28T10:02:28;62.77;44.21;70.60;;
67900;Laerm;54700;51.796;10.956;2023-02-28T10:05:00;62.92;47.18;69.19;;
67900;Laerm;54700;51.796;10.956;2023-02-28T10:07:43;64.90;36.99;76.42;;
67900;Laerm;54700;51.796;10.956;2023-02-28T10:10:20;62.20;36.92;71.30;;
67900;Laerm;54700;51.796;10.956;2023-02-28T10:12:51;64.23;44.95;72.25;;
67900;Laerm;54700;51.796;10.956;2023-02-28T10:15:22;63.04;40.75;76.08;;
67900;Laerm;54700;51.796;10.956;2023-02-28T10:17:56;60.95;35.99;68.88;;
67900;Laerm;54700;51.796;10.956;2023-02-28T10:20:29;62.60;41.40;70.96;;
67900;Laerm;54700;51.796;10.956;2023-02-28T10:23:09;60.86;38.11;71.23;;
67900;Laerm;54700;51.796;10.956;2023-02-28T10:25:46;62.97;39.92;72.98;;
67900;Laerm;54700;51.796;10.956;2023-02-28T10:28:20;63.20;36.82;69.80;;
67900;Laerm;54700;51.796;10.956;2023-02-28T10:33:30;63.85;38.32;73.76;;
67900;Laerm;54700;51.796;10.956;2023-02-28T10:36:19;62.53;36.36;70.79;;
67900;Laerm;54700;51.796;10.956;2023-02-28T10:39:04;63.63;43.88;72.06;;
67900;Laerm;54700;51.796;10.956;2023-02-28T10:42:23;60.81;37.49;71.30;;
67900;Laerm;54700;51.796;10.956;2023-02-28T10:45:13;62.10;37.25;70.98;;
67900;Laerm;54700;51.796;10.956;2023-02-28T10:47:53;63.66;47.03;74.01;;
67900;Laerm;54700;51.796;10.956;2023-02-28T10:50:51;61.95;41.03;73.02;;
67900;Laerm;54700;51.796;10.956;2023-02-28T10:53:38;62.19;42.71;74.97;;
67900;Laerm;54700;51.796;10.956;2023-02-28T10:59:35;61.11;38.01;73.17;;
67900;Laerm;54700;51.796;10.956;2023-02-28T11:02:31;63.17;39.75;78.41;;
67900;Laerm;54700;51.796;10.956;2023-02-28T11:05:24;62.92;41.21;76.21;;
67900;Laerm;54700;51.796;10.956;2023-02-28T11:07:59;63.59;46.25;72.76;;
67900;Laerm;54700;51.796;10.956;2023-02-28T11:10:31;61.85;35.31;71.10;;
67900;Laerm;54700;51.796;10.956;2023-02-28T11:13:02;59.49;39.23;71.29;;
67900;Laerm;54700;51.796;10.956;2023-02-28T11:15:33;62.24;45.83;76.69;;
67900;Laerm;54700;51.796;10.956;2023-02-28T11:18:06;61.60;39.46;72.23;;
67900;Laerm;54700;51.796;10.956;2023-02-28T11:20:48;61.77;36.29;73.22;;
67900;Laerm;54700;51.796;10.956;2023-02-28T11:23:16;62.62;40.12;72.57;;
67900;Laerm;54700;51.796;10.956;2023-02-28T11:25:52;62.71;40.25;71.42;;
67900;Laerm;54700;51.796;10.956;2023-02-28T11:28:28;61.26;33.28;74.40;;
67900;Laerm;54700;51.796;10.956;2023-02-28T11:31:04;62.64;37.65;71.74;;
67900;Laerm;54700;51.796;10.956;2023-02-28T11:33:48;62.83;44.89;74.29;;
67900;Laerm;54700;51.796;10.956;2023-02-28T11:36:21;63.96;48.12;74.84;;
67900;Laerm;54700;51.796;10.956;2023-02-28T11:38:51;62.28;37.64;76.22;;
67900;Laerm;54700;51.796;10.956;2023-02-28T11:41:33;63.98;39.05;74.85;;
67900;Laerm;54700;51.796;10.956;2023-02-28T11:44:28;62.61;41.52;69.96;;
67900;Laerm;54700;51.796;10.956;2023-02-28T11:47:07;62.04;42.37;71.77;;
67900;Laerm;54700;51.796;10.956;2023-02-28T11:49:46;61.33;39.48;71.58;;
67900;Laerm;54700;51.796;10.956;2023-02-28T11:52:26;63.24;48.19;72.27;;
67900;Laerm;54700;51.796;10.956;2023-02-28T11:55:07;61.55;43.35;75.15;;
67900;Laerm;54700;51.796;10.956;2023-02-28T11:58:01;60.89;41.54;81.07;;
67900;Laerm;54700;51.796;10.956;2023-02-28T12:00:40;62.49;40.36;74.23;;
67900;Laerm;54700;51.796;10.956;2023-02-28T12:03:42;64.18;45.07;73.83;;
67900;Laerm;54700;51.796;10.956;2023-02-28T12:06:21;62.80;41.60;70.86;;
67900;Laerm;54700;51.796;10.956;2023-02-28T12:09:00;62.23;36.17;74.70;;
67900;Laerm;54700;51.796;10.956;2023-02-28T12:11:40;63.67;44.27;74.97;;
67900;Laerm;54700;51.796;10.956;2023-02-28T12:14:42;62.49;41.24;73.29;;
67900;Laerm;54700;51.796;10.956;2023-02-28T12:17:24;62.94;46.63;72.42;;
67900;Laerm;54700;51.796;10.956;2023-02-28T12:20:00;64.04;37.73;76.80;;
67900;Laerm;54700;51.796;10.956;2023-02-28T12:22:31;58.95;34.61;68.43;;
67900;Laerm;54700;51.796;10.956;2023-02-28T12:25:24;62.51;36.13;73.60;;
67900;Laerm;54700;51.796;10.956;2023-02-28T12:27:58;60.95;33.89;72.33;;
67900;Laerm;54700;51.796;10.956;2023-02-28T12:30:31;63.41;45.67;72.07;;
67900;Laerm;54700;51.796;10.956;2023-02-28T12:33:04;65.03;42.13;76.80;;
67900;Laerm;54700;51.796;10.956;2023-02-28T12:35:38;61.05;34.00;69.66;;
67900;Laerm;54700;51.796;10.956;2023-02-28T12:38:15;62.80;33.58;73.85;;
67900;Laerm;54700;51.796;10.956;2023-02-28T12:40:53;63.16;38.95;82.23;;
67900;Laerm;54700;51.796;10.956;2023-02-28T12:43:24;61.06;42.08;78.73;;
67900;Laerm;54700;51.796;10.956;2023-02-28T12:45:58;61.92;44.67;74.16;;
67900;Laerm;54700;51.796;10.956;2023-02-28T12:48:31;63.31;41.71;83.14;;
67900;Laerm;54700;51.796;10.956;2023-02-28T12:51:07;64.76;43.30;72.27;;
67900;Laerm;54700;51.796;10.956;2023-02-28T12:53:45;62.00;39.19;73.12;;
67900;Laerm;54700;51.796;10.956;2023-02-28T12:56:23;62.57;38.30;73.31;;
67900;Laerm;54700;51.796;10.956;2023-02-28T12:58:58;64.67;47.64;75.02;;
67900;Laerm;54700;51.796;10.956;2023-02-28T13:04:46;63.63;37.95;73.02;;
67900;Laerm;54700;51.796;10.956;2023-02-28T13:07:36;63.02;39.25;73.96;;
67900;Laerm;54700;51.796;10.956;2023-02-28T13:10:08;60.45;34.89;70.81;;
67900;Laerm;54700;51.796;10.956;2023-02-28T13:12:48;62.61;36.23;72.05;;
67900;Laerm;54700;51.796;10.956;2023-02-28T13:15:20;62.70;37.62;74.54;;
67900;Laerm;54700;51.796;10.956;2023-02-28T13:17:51;60.64;35.22;70.63;;
67900;Laerm;54700;51.796;10.956;2023-02-28T13:20:24;62.44;46.47;71.95;;
67900;Laerm;54700;51.796;10.956;2023-02-28T13:22:55;60.61;33.30;70.84;;
67900;Laerm;54700;51.796;10.956;2023-02-28T13:25:52;64.17;37.86;79.50;;
67900;Laerm;54700;51.796;10.956;2023-02-28T13:34:40;63.10;38.61;72.71;;
67900;Laerm;54700;51.796;10.956;2023-02-28T13:37:41;63.53;47.89;72.82;;
67900;Laerm;54700;51.796;10.956;2023-02-28T13:40:31;62.25;36.05;72.10;;
67900;Laerm;54700;51.796;10.956;2023-02-28T13:43:03;62.39;42.81;72.16;;
67900;Laerm;54700;51.796;10.956;2023-02-28T13:45:33;62.21;42.98;76.01;;
67900;Laerm;54700;51.796;10.956;2023-02-28T13:48:05;62.17;43.18;69.88;;
67900;Laerm;54700;51.796;10.956;2023-02-28T13:50:42;63.69;33.28;76.20;;
67900;Laerm;54700;51.796;10.956;2023-02-28T13:53:50;62.15;38.28;73.96;;
67900;Laerm;54700;51.796;10.956;2023-02-28T13:56:29;63.12;36.44;72.78;;
67900;Laerm;54700;51.796;10.956;2023-02-28T13:59:06;64.04;38.80;71.75;;
67900;Laerm;54700;51.796;10.956;2023-02-28T14:01:50;63.40;37.30;73.38;;
67900;Laerm;54700;51.796;10.956;2023-02-28T14:04:50;62.42;45.75;71.86;;
67900;Laerm;54700;51.796;10.956;2023-02-28T14:07:23;63.90;43.09;72.34;;
67900;Laerm;54700;51.796;10.956;2023-02-28T14:09:58;62.34;39.07;69.94;;
67900;Laerm;54700;51.796;10.956;2023-02-28T14:12:54;63.59;34.37;71.73;;
67900;Laerm;54700;51.796;10.956;2023-02-28T14:15:38;61.94;41.32;73.16;;
67900;Laerm;54700;51.796;10.956;2023-02-28T14:18:16;66.06;48.93;83.20;;
67900;Laerm;54700;51.796;10.956;2023-02-28T14:20:46;65.34;44.64;78.10;;
67900;Laerm;54700;51.796;10.956;2023-02-28T14:23:26;62.43;42.03;70.53;;
67900;Laerm;54700;51.796;10.956;2023-02-28T14:26:03;62.58;43.13;71.13;;
67900;Laerm;54700;51.796;10.956;2023-02-28T14:28:51;61.96;44.87;71.18;;
67900;Laerm;54700;51.796;10.956;2023-02-28T14:31:28;64.33;50.25;72.70;;
67900;Laerm;54700;51.796;10.956;2023-02-28T14:34:12;64.98;51.76;75.50;;
67900;Laerm;54700;51.796;10.956;2023-02-28T14:36:44;63.45;46.26;71.50;;
67900;Laerm;54700;51.796;10.956;2023-02-28T14:39:14;62.42;39.39;71.32;;
67900;Laerm;54700;51.796;10.956;2023-02-28T14:41:42;64.50;44.83;74.68;;